sensor_id;sensor_type;location;lat;lon;timestamp;P1;durP1;ratioP1;P2;durP2;ratioP2
16159;SDS011;8185;57.818;15.224;2022-10-31T00:00:34;18.03;;;3.90;;
16159;SDS011;8185;57.818;15.224;2022-10-31T00:03:01;12.90;;;3.93;;
16159;SDS011;8185;57.818;15.224;2022-10-31T00:05:29;20.63;;;5.00;;
16159;SDS011;8185;57.818;15.224;2022-10-31T00:07:56;8.33;;;3.70;;
16159;SDS011;8185;57.818;15.224;2022-10-31T00:10:25;15.53;;;4.03;;
16159;SDS011;8185;57.818;15.224;2022-10-31T00:12:52;10.17;;;3.63;;
16159;SDS011;8185;57.818;15.224;2022-10-31T00:15:21;11.07;;;3.60;;
16159;SDS011;8185;57.818;15.224;2022-10-31T00:17:48;13.87;;;3.77;;
16159;SDS011;8185;57.818;15.224;2022-10-31T00:20:16;10.40;;;3.83;;
16159;SDS011;8185;57.818;15.224;2022-10-31T00:22:43;13.97;;;3.37;;
16159;SDS011;8185;57.818;15.224;2022-10-31T00:25:10;10.10;;;3.57;;
16159;SDS011;8185;57.818;15.224;2022-10-31T00:27:38;11.80;;;3.37;;
16159;SDS011;8185;57.818;15.224;2022-10-31T00:30:06;7.90;;;3.63;;
16159;SDS011;8185;57.818;15.224;2022-10-31T00:32:35;11.23;;;4.47;;
16159;SDS011;8185;57.818;15.224;2022-10-31T00:35:02;11.87;;;4.67;;
16159;SDS011;8185;57.818;15.224;2022-10-31T00:37:30;10.83;;;4.73;;
16159;SDS011;8185;57.818;15.224;2022-10-31T00:39:58;10.47;;;4.30;;
16159;SDS011;8185;57.818;15.224;2022-10-31T00:42:25;13.97;;;4.90;;
16159;SDS011;8185;57.818;15.224;2022-10-31T00:44:53;14.97;;;4.90;;
16159;SDS011;8185;57.818;15.224;2022-10-31T00:47:20;12.37;;;4.20;;
16159;SDS011;8185;57.818;15.224;2022-10-31T00:49:49;11.87;;;4.20;;
16159;SDS011;8185;57.818;15.224;2022-10-31T00:52:16;13.50;;;4.83;;
16159;SDS011;8185;57.818;15.224;2022-10-31T00:54:43;18.60;;;4.13;;
16159;SDS011;8185;57.818;15.224;2022-10-31T00:57:11;15.30;;;5.10;;
16159;SDS011;8185;57.818;15.224;2022-10-31T00:59:38;22.70;;;5.47;;
16159;SDS011;8185;57.818;15.224;2022-10-31T01:02:05;13.53;;;5.17;;
16159;SDS011;8185;57.818;15.224;2022-10-31T01:04:33;15.00;;;5.10;;
16159;SDS011;8185;57.818;15.224;2022-10-31T01:07:01;16.67;;;5.00;;
16159;SDS011;8185;57.818;15.224;2022-10-31T01:09:29;17.97;;;5.43;;
16159;SDS011;8185;57.818;15.224;2022-10-31T01:11:56;15.70;;;4.40;;
16159;SDS011;8185;57.818;15.224;2022-10-31T01:14:24;11.50;;;4.50;;
16159;SDS011;8185;57.818;15.224;2022-10-31T01:16:51;15.00;;;4.30;;
16159;SDS011;8185;57.818;15.224;2022-10-31T01:19:19;13.77;;;5.40;;
16159;SDS011;8185;57.818;15.224;2022-10-31T01:21:46;17.17;;;5.30;;
16159;SDS011;8185;57.818;15.224;2022-10-31T01:24:15;15.27;;;4.83;;
16159;SDS011;8185;57.818;15.224;2022-10-31T01:26:42;19.37;;;5.00;;
16159;SDS011;8185;57.818;15.224;2022-10-31T01:29:09;17.50;;;4.77;;
16159;SDS011;8185;57.818;15.224;2022-10-31T01:31:37;13.40;;;4.33;;
16159;SDS011;8185;57.818;15.224;2022-10-31T01:34:05;14.50;;;5.37;;
16159;SDS011;8185;57.818;15.224;2022-10-31T01:36:33;16.57;;;6.10;;
16159;SDS011;8185;57.818;15.224;2022-10-31T01:39:04;24.97;;;4.93;;
16159;SDS011;8185;57.818;15.224;2022-10-31T01:41:34;12.03;;;4.50;;
16159;SDS011;8185;57.818;15.224;2022-10-31T01:44:03;13.47;;;3.97;;
16159;SDS011;8185;57.818;15.224;2022-10-31T01:47:11;13.77;;;5.13;;
16159;SDS011;8185;57.818;15.224;2022-10-31T01:49:43;17.13;;;5.13;;
16159;SDS011;8185;57.818;15.224;2022-10-31T01:52:16;18.30;;;5.33;;
16159;SDS011;8185;57.818;15.224;2022-10-31T01:54:48;15.63;;;4.83;;
16159;SDS011;8185;57.818;15.224;2022-10-31T01:57:21;9.83;;;4.57;;
16159;SDS011;8185;57.818;15.224;2022-10-31T01:59:49;15.17;;;5.30;;
16159;SDS011;8185;57.818;15.224;2022-10-31T02:02:20;13.17;;;4.60;;
16159;SDS011;8185;57.818;15.224;2022-10-31T02:04:47;13.97;;;4.70;;
16159;SDS011;8185;57.818;15.224;2022-10-31T02:07:16;13.13;;;4.47;;
16159;SDS011;8185;57.818;15.224;2022-10-31T02:09:47;16.60;;;4.87;;
16159;SDS011;8185;57.818;15.224;2022-10-31T02:12:17;10.37;;;4.37;;
16159;SDS011;8185;57.818;15.224;2022-10-31T02:14:48;10.77;;;4.63;;
16159;SDS011;8185;57.818;15.224;2022-10-31T02:17:15;11.10;;;4.20;;
16159;SDS011;8185;57.818;15.224;2022-10-31T02:19:45;11.43;;;4.07;;
16159;SDS011;8185;57.818;15.224;2022-10-31T02:22:20;9.73;;;4.63;;
16159;SDS011;8185;57.818;15.224;2022-10-31T02:24:58;18.23;;;4.97;;
16159;SDS011;8185;57.818;15.224;2022-10-31T02:27:43;11.70;;;4.20;;
16159;SDS011;8185;57.818;15.224;2022-10-31T02:30:29;10.43;;;4.00;;
16159;SDS011;8185;57.818;15.224;2022-10-31T02:33:13;12.17;;;4.27;;
16159;SDS011;8185;57.818;15.224;2022-10-31T02:35:50;10.60;;;4.00;;
16159;SDS011;8185;57.818;15.224;2022-10-31T02:38:31;10.07;;;4.07;;
16159;SDS011;8185;57.818;15.224;2022-10-31T02:41:10;11.13;;;4.13;;
16159;SDS011;8185;57.818;15.224;2022-10-31T02:43:47;9.80;;;4.70;;
16159;SDS011;8185;57.818;15.224;2022-10-31T02:46:23;10.80;;;4.40;;
16159;SDS011;8185;57.818;15.224;2022-10-31T02:48:58;10.33;;;4.63;;
16159;SDS011;8185;57.818;15.224;2022-10-31T02:51:30;9.13;;;3.87;;
16159;SDS011;8185;57.818;15.224;2022-10-31T02:53:57;10.70;;;4.07;;
16159;SDS011;8185;57.818;15.224;2022-10-31T02:56:24;9.43;;;3.70;;
16159;SDS011;8185;57.818;15.224;2022-10-31T02:58:52;11.77;;;4.27;;
16159;SDS011;8185;57.818;15.224;2022-10-31T03:07:23;6.27;;;3.23;;
16159;SDS011;8185;57.818;15.224;2022-10-31T03:10:00;6.20;;;3.50;;
16159;SDS011;8185;57.818;15.224;2022-10-31T03:12:34;10.27;;;4.70;;
16159;SDS011;8185;57.818;15.224;2022-10-31T03:15:11;10.33;;;4.23;;
16159;SDS011;8185;57.818;15.224;2022-10-31T03:17:47;8.57;;;3.70;;
16159;SDS011;8185;57.818;15.224;2022-10-31T03:20:24;9.30;;;4.00;;
16159;SDS011;8185;57.818;15.224;2022-10-31T03:22:58;10.73;;;4.10;;
16159;SDS011;8185;57.818;15.224;2022-10-31T03:25:27;11.27;;;3.47;;
16159;SDS011;8185;57.818;15.224;2022-10-31T03:27:57;9.07;;;3.60;;
16159;SDS011;8185;57.818;15.224;2022-10-31T03:30:26;9.20;;;3.80;;
16159;SDS011;8185;57.818;15.224;2022-10-31T03:32:54;4.17;;;3.40;;
16159;SDS011;8185;57.818;15.224;2022-10-31T03:35:24;7.87;;;3.90;;
16159;SDS011;8185;57.818;15.224;2022-10-31T03:37:54;7.07;;;3.93;;
16159;SDS011;8185;57.818;15.224;2022-10-31T03:40:24;8.60;;;3.80;;
16159;SDS011;8185;57.818;15.224;2022-10-31T03:42:54;6.33;;;3.40;;
16159;SDS011;8185;57.818;15.224;2022-10-31T03:45:26;6.87;;;3.83;;
16159;SDS011;8185;57.818;15.224;2022-10-31T03:47:56;5.87;;;3.40;;
16159;SDS011;8185;57.818;15.224;2022-10-31T03:50:25;5.73;;;3.67;;
16159;SDS011;8185;57.818;15.224;2022-10-31T03:53:02;9.73;;;3.80;;
16159;SDS011;8185;57.818;15.224;2022-10-31T03:55:35;8.43;;;3.70;;
16159;SDS011;8185;57.818;15.224;2022-10-31T03:58:09;6.50;;;3.47;;
16159;SDS011;8185;57.818;15.224;2022-10-31T04:00:40;6.30;;;3.50;;
16159;SDS011;8185;57.818;15.224;2022-10-31T04:03:11;5.73;;;3.40;;
16159;SDS011;8185;57.818;15.224;2022-10-31T04:05:44;5.90;;;3.20;;
16159;SDS011;8185;57.818;15.224;2022-10-31T04:08:14;5.07;;;3.40;;
16159;SDS011;8185;57.818;15.224;2022-10-31T04:10:46;5.60;;;3.00;;
16159;SDS011;8185;57.818;15.224;2022-10-31T04:13:16;5.17;;;3.40;;
16159;SDS011;8185;57.818;15.224;2022-10-31T04:15:49;7.03;;;3.57;;
16159;SDS011;8185;57.818;15.224;2022-10-31T04:18:18;9.63;;;4.00;;
16159;SDS011;8185;57.818;15.224;2022-10-31T04:20:46;5.77;;;3.60;;
16159;SDS011;8185;57.818;15.224;2022-10-31T04:23:16;5.60;;;3.77;;
16159;SDS011;8185;57.818;15.224;2022-10-31T04:25:52;6.20;;;3.30;;
16159;SDS011;8185;57.818;15.224;2022-10-31T04:28:19;7.70;;;3.33;;
16159;SDS011;8185;57.818;15.224;2022-10-31T04:30:47;3.70;;;3.30;;
16159;SDS011;8185;57.818;15.224;2022-10-31T04:33:14;7.27;;;3.50;;
16159;SDS011;8185;57.818;15.224;2022-10-31T04:35:42;5.13;;;3.30;;
16159;SDS011;8185;57.818;15.224;2022-10-31T04:38:09;5.10;;;3.20;;
16159;SDS011;8185;57.818;15.224;2022-10-31T04:40:36;6.80;;;3.53;;
16159;SDS011;8185;57.818;15.224;2022-10-31T04:43:05;5.07;;;3.23;;
16159;SDS011;8185;57.818;15.224;2022-10-31T04:45:32;4.90;;;3.33;;
16159;SDS011;8185;57.818;15.224;2022-10-31T04:47:59;5.27;;;3.63;;
16159;SDS011;8185;57.818;15.224;2022-10-31T04:50:27;5.10;;;3.33;;
16159;SDS011;8185;57.818;15.224;2022-10-31T04:52:54;6.17;;;3.00;;
16159;SDS011;8185;57.818;15.224;2022-10-31T04:55:22;4.43;;;3.40;;
16159;SDS011;8185;57.818;15.224;2022-10-31T04:57:49;7.70;;;4.10;;
16159;SDS011;8185;57.818;15.224;2022-10-31T05:00:19;5.77;;;3.60;;
16159;SDS011;8185;57.818;15.224;2022-10-31T05:02:48;5.07;;;3.03;;
16159;SDS011;8185;57.818;15.224;2022-10-31T05:05:17;5.43;;;3.30;;
16159;SDS011;8185;57.818;15.224;2022-10-31T05:07:47;3.37;;;3.00;;
16159;SDS011;8185;57.818;15.224;2022-10-31T05:10:16;4.90;;;3.23;;
16159;SDS011;8185;57.818;15.224;2022-10-31T05:12:48;5.97;;;3.67;;
16159;SDS011;8185;57.818;15.224;2022-10-31T05:15:16;6.50;;;3.57;;
16159;SDS011;8185;57.818;15.224;2022-10-31T05:17:46;6.33;;;3.30;;
16159;SDS011;8185;57.818;15.224;2022-10-31T05:20:14;8.87;;;3.80;;
16159;SDS011;8185;57.818;15.224;2022-10-31T05:22:43;6.30;;;3.77;;
16159;SDS011;8185;57.818;15.224;2022-10-31T05:25:10;5.20;;;4.00;;
16159;SDS011;8185;57.818;15.224;2022-10-31T05:27:38;5.00;;;3.93;;
16159;SDS011;8185;57.818;15.224;2022-10-31T05:30:06;4.67;;;3.83;;
16159;SDS011;8185;57.818;15.224;2022-10-31T05:32:39;5.23;;;3.57;;
16159;SDS011;8185;57.818;15.224;2022-10-31T05:35:07;4.07;;;3.40;;
16159;SDS011;8185;57.818;15.224;2022-10-31T05:37:35;5.17;;;3.30;;
16159;SDS011;8185;57.818;15.224;2022-10-31T05:40:03;6.63;;;3.70;;
16159;SDS011;8185;57.818;15.224;2022-10-31T05:42:31;5.00;;;3.27;;
16159;SDS011;8185;57.818;15.224;2022-10-31T05:44:58;6.07;;;3.20;;
16159;SDS011;8185;57.818;15.224;2022-10-31T05:47:25;5.03;;;2.67;;
16159;SDS011;8185;57.818;15.224;2022-10-31T05:49:54;4.17;;;3.47;;
16159;SDS011;8185;57.818;15.224;2022-10-31T05:52:22;5.37;;;3.30;;
16159;SDS011;8185;57.818;15.224;2022-10-31T05:54:49;5.40;;;3.50;;
16159;SDS011;8185;57.818;15.224;2022-10-31T05:57:17;4.70;;;3.20;;
16159;SDS011;8185;57.818;15.224;2022-10-31T05:59:44;4.27;;;3.27;;
16159;SDS011;8185;57.818;15.224;2022-10-31T06:02:11;6.00;;;3.20;;
16159;SDS011;8185;57.818;15.224;2022-10-31T06:04:38;6.57;;;3.87;;
16159;SDS011;8185;57.818;15.224;2022-10-31T06:07:07;6.83;;;3.60;;
16159;SDS011;8185;57.818;15.224;2022-10-31T06:09:35;5.53;;;3.00;;
16159;SDS011;8185;57.818;15.224;2022-10-31T06:12:02;5.13;;;3.40;;
16159;SDS011;8185;57.818;15.224;2022-10-31T06:14:29;4.70;;;3.10;;
16159;SDS011;8185;57.818;15.224;2022-10-31T06:16:57;4.87;;;3.67;;
16159;SDS011;8185;57.818;15.224;2022-10-31T06:19:24;6.17;;;3.70;;
16159;SDS011;8185;57.818;15.224;2022-10-31T06:21:51;5.10;;;3.40;;
16159;SDS011;8185;57.818;15.224;2022-10-31T06:24:20;4.70;;;3.27;;
16159;SDS011;8185;57.818;15.224;2022-10-31T06:26:48;7.07;;;3.63;;
16159;SDS011;8185;57.818;15.224;2022-10-31T06:29:15;4.87;;;3.33;;
16159;SDS011;8185;57.818;15.224;2022-10-31T06:31:42;5.83;;;3.27;;
16159;SDS011;8185;57.818;15.224;2022-10-31T06:34:09;7.07;;;3.43;;
16159;SDS011;8185;57.818;15.224;2022-10-31T06:36:37;6.07;;;3.80;;
16159;SDS011;8185;57.818;15.224;2022-10-31T06:39:04;4.97;;;3.10;;
16159;SDS011;8185;57.818;15.224;2022-10-31T06:41:33;4.43;;;3.33;;
16159;SDS011;8185;57.818;15.224;2022-10-31T06:44:01;7.10;;;3.70;;
16159;SDS011;8185;57.818;15.224;2022-10-31T06:46:29;5.30;;;3.27;;
16159;SDS011;8185;57.818;15.224;2022-10-31T06:48:56;6.40;;;3.70;;
16159;SDS011;8185;57.818;15.224;2022-10-31T06:51:24;5.47;;;3.53;;
16159;SDS011;8185;57.818;15.224;2022-10-31T06:53:51;3.53;;;3.17;;
16159;SDS011;8185;57.818;15.224;2022-10-31T06:56:18;4.70;;;3.57;;
16159;SDS011;8185;57.818;15.224;2022-10-31T06:58:47;6.23;;;3.50;;
16159;SDS011;8185;57.818;15.224;2022-10-31T07:01:14;4.47;;;4.00;;
16159;SDS011;8185;57.818;15.224;2022-10-31T07:03:42;5.23;;;4.17;;
16159;SDS011;8185;57.818;15.224;2022-10-31T07:06:09;4.57;;;3.57;;
16159;SDS011;8185;57.818;15.224;2022-10-31T07:08:36;3.83;;;3.43;;
16159;SDS011;8185;57.818;15.224;2022-10-31T07:11:04;4.10;;;3.10;;
16159;SDS011;8185;57.818;15.224;2022-10-31T07:13:31;5.17;;;3.07;;
16159;SDS011;8185;57.818;15.224;2022-10-31T07:16:01;3.63;;;3.20;;
16159;SDS011;8185;57.818;15.224;2022-10-31T07:18:31;3.33;;;3.00;;
16159;SDS011;8185;57.818;15.224;2022-10-31T07:20:59;4.00;;;3.20;;
16159;SDS011;8185;57.818;15.224;2022-10-31T07:23:26;3.87;;;3.47;;
16159;SDS011;8185;57.818;15.224;2022-10-31T07:25:54;4.37;;;3.40;;
16159;SDS011;8185;57.818;15.224;2022-10-31T07:28:22;5.30;;;4.50;;
16159;SDS011;8185;57.818;15.224;2022-10-31T07:30:50;4.03;;;3.63;;
16159;SDS011;8185;57.818;15.224;2022-10-31T07:33:19;6.33;;;4.07;;
16159;SDS011;8185;57.818;15.224;2022-10-31T07:35:46;6.50;;;4.40;;
16159;SDS011;8185;57.818;15.224;2022-10-31T07:38:14;6.60;;;4.40;;
16159;SDS011;8185;57.818;15.224;2022-10-31T07:40:42;5.27;;;4.43;;
16159;SDS011;8185;57.818;15.224;2022-10-31T07:43:10;6.90;;;5.33;;
16159;SDS011;8185;57.818;15.224;2022-10-31T07:45:37;9.47;;;4.80;;
16159;SDS011;8185;57.818;15.224;2022-10-31T07:48:05;6.37;;;4.47;;
16159;SDS011;8185;57.818;15.224;2022-10-31T07:50:34;6.27;;;4.50;;
16159;SDS011;8185;57.818;15.224;2022-10-31T07:53:02;7.53;;;4.97;;
16159;SDS011;8185;57.818;15.224;2022-10-31T07:55:31;8.83;;;5.07;;
16159;SDS011;8185;57.818;15.224;2022-10-31T07:57:59;10.30;;;5.43;;
16159;SDS011;8185;57.818;15.224;2022-10-31T08:00:27;8.27;;;4.97;;
16159;SDS011;8185;57.818;15.224;2022-10-31T08:02:58;6.73;;;4.73;;
16159;SDS011;8185;57.818;15.224;2022-10-31T08:05:26;7.00;;;4.73;;
16159;SDS011;8185;57.818;15.224;2022-10-31T08:07:55;8.70;;;5.30;;
16159;SDS011;8185;57.818;15.224;2022-10-31T08:10:23;7.17;;;4.67;;
16159;SDS011;8185;57.818;15.224;2022-10-31T08:12:55;5.20;;;4.33;;
16159;SDS011;8185;57.818;15.224;2022-10-31T08:15:23;12.20;;;5.33;;
16159;SDS011;8185;57.818;15.224;2022-10-31T08:17:51;6.87;;;4.63;;
16159;SDS011;8185;57.818;15.224;2022-10-31T08:20:19;8.93;;;4.60;;
16159;SDS011;8185;57.818;15.224;2022-10-31T08:22:57;9.83;;;5.00;;
16159;SDS011;8185;57.818;15.224;2022-10-31T08:25:26;10.00;;;4.97;;
16159;SDS011;8185;57.818;15.224;2022-10-31T08:27:55;7.20;;;4.47;;
16159;SDS011;8185;57.818;15.224;2022-10-31T08:30:24;6.87;;;4.50;;
16159;SDS011;8185;57.818;15.224;2022-10-31T08:32:59;8.70;;;5.70;;
16159;SDS011;8185;57.818;15.224;2022-10-31T08:35:28;7.73;;;5.23;;
16159;SDS011;8185;57.818;15.224;2022-10-31T08:37:55;9.03;;;4.80;;
16159;SDS011;8185;57.818;15.224;2022-10-31T08:40:25;10.27;;;5.03;;
16159;SDS011;8185;57.818;15.224;2022-10-31T08:42:58;5.80;;;4.60;;
16159;SDS011;8185;57.818;15.224;2022-10-31T08:45:26;7.43;;;4.40;;
16159;SDS011;8185;57.818;15.224;2022-10-31T08:47:57;7.17;;;4.30;;
16159;SDS011;8185;57.818;15.224;2022-10-31T08:50:25;5.80;;;4.00;;
16159;SDS011;8185;57.818;15.224;2022-10-31T08:52:58;6.77;;;4.33;;
16159;SDS011;8185;57.818;15.224;2022-10-31T08:55:28;5.40;;;4.20;;
16159;SDS011;8185;57.818;15.224;2022-10-31T08:57:55;6.73;;;3.93;;
16159;SDS011;8185;57.818;15.224;2022-10-31T09:00:23;6.43;;;4.53;;
16159;SDS011;8185;57.818;15.224;2022-10-31T09:02:54;8.40;;;4.87;;
16159;SDS011;8185;57.818;15.224;2022-10-31T09:05:23;8.00;;;4.33;;
16159;SDS011;8185;57.818;15.224;2022-10-31T09:07:52;6.07;;;4.40;;
16159;SDS011;8185;57.818;15.224;2022-10-31T09:10:24;6.70;;;4.10;;
16159;SDS011;8185;57.818;15.224;2022-10-31T09:12:55;11.87;;;4.90;;
16159;SDS011;8185;57.818;15.224;2022-10-31T09:15:23;6.40;;;4.60;;
16159;SDS011;8185;57.818;15.224;2022-10-31T09:17:51;8.40;;;5.47;;
16159;SDS011;8185;57.818;15.224;2022-10-31T09:20:18;9.53;;;4.90;;
16159;SDS011;8185;57.818;15.224;2022-10-31T09:22:46;9.97;;;5.43;;
16159;SDS011;8185;57.818;15.224;2022-10-31T09:25:13;6.77;;;4.47;;
16159;SDS011;8185;57.818;15.224;2022-10-31T09:27:42;8.37;;;5.63;;
16159;SDS011;8185;57.818;15.224;2022-10-31T09:30:10;8.73;;;7.53;;
16159;SDS011;8185;57.818;15.224;2022-10-31T09:32:38;7.77;;;6.90;;
16159;SDS011;8185;57.818;15.224;2022-10-31T09:35:05;7.67;;;5.27;;
16159;SDS011;8185;57.818;15.224;2022-10-31T09:37:33;8.03;;;4.50;;
16159;SDS011;8185;57.818;15.224;2022-10-31T09:40:01;9.07;;;5.17;;
16159;SDS011;8185;57.818;15.224;2022-10-31T09:42:34;7.47;;;5.83;;
16159;SDS011;8185;57.818;15.224;2022-10-31T09:45:19;8.80;;;4.90;;
16159;SDS011;8185;57.818;15.224;2022-10-31T09:48:06;7.23;;;5.17;;
16159;SDS011;8185;57.818;15.224;2022-10-31T09:50:48;8.87;;;5.13;;
16159;SDS011;8185;57.818;15.224;2022-10-31T09:53:22;8.17;;;5.40;;
16159;SDS011;8185;57.818;15.224;2022-10-31T09:55:53;9.73;;;5.43;;
16159;SDS011;8185;57.818;15.224;2022-10-31T09:58:24;6.77;;;4.77;;
16159;SDS011;8185;57.818;15.224;2022-10-31T10:00:53;8.57;;;4.87;;
16159;SDS011;8185;57.818;15.224;2022-10-31T10:03:27;7.47;;;4.33;;
16159;SDS011;8185;57.818;15.224;2022-10-31T10:06:01;7.33;;;5.10;;
16159;SDS011;8185;57.818;15.224;2022-10-31T10:08:34;7.77;;;5.00;;
16159;SDS011;8185;57.818;15.224;2022-10-31T10:11:06;8.23;;;5.60;;
16159;SDS011;8185;57.818;15.224;2022-10-31T10:14:00;9.37;;;5.77;;
16159;SDS011;8185;57.818;15.224;2022-10-31T10:16:41;8.47;;;4.20;;
16159;SDS011;8185;57.818;15.224;2022-10-31T10:19:22;7.53;;;5.10;;
16159;SDS011;8185;57.818;15.224;2022-10-31T10:21:58;7.30;;;5.00;;
16159;SDS011;8185;57.818;15.224;2022-10-31T10:24:41;6.10;;;4.47;;
16159;SDS011;8185;57.818;15.224;2022-10-31T10:27:26;7.57;;;4.40;;
16159;SDS011;8185;57.818;15.224;2022-10-31T10:30:07;7.97;;;4.90;;
16159;SDS011;8185;57.818;15.224;2022-10-31T10:32:42;6.17;;;4.53;;
16159;SDS011;8185;57.818;15.224;2022-10-31T10:35:15;7.93;;;5.07;;
16159;SDS011;8185;57.818;15.224;2022-10-31T10:37:51;9.27;;;5.63;;
16159;SDS011;8185;57.818;15.224;2022-10-31T10:40:23;10.53;;;6.20;;
16159;SDS011;8185;57.818;15.224;2022-10-31T10:42:55;8.37;;;5.27;;
16159;SDS011;8185;57.818;15.224;2022-10-31T10:45:50;7.60;;;4.83;;
16159;SDS011;8185;57.818;15.224;2022-10-31T10:48:43;10.73;;;4.93;;
16159;SDS011;8185;57.818;15.224;2022-10-31T10:51:19;5.67;;;4.30;;
16159;SDS011;8185;57.818;15.224;2022-10-31T10:53:55;6.30;;;4.50;;
16159;SDS011;8185;57.818;15.224;2022-10-31T10:56:42;11.67;;;8.87;;
16159;SDS011;8185;57.818;15.224;2022-10-31T10:59:25;6.13;;;3.30;;
16159;SDS011;8185;57.818;15.224;2022-10-31T11:01:56;6.23;;;3.40;;
16159;SDS011;8185;57.818;15.224;2022-10-31T11:04:27;5.20;;;2.87;;
16159;SDS011;8185;57.818;15.224;2022-10-31T11:06:58;8.27;;;7.33;;
16159;SDS011;8185;57.818;15.224;2022-10-31T11:09:29;6.50;;;4.07;;
16159;SDS011;8185;57.818;15.224;2022-10-31T11:11:57;5.17;;;4.63;;
16159;SDS011;8185;57.818;15.224;2022-10-31T11:14:26;5.23;;;2.90;;
16159;SDS011;8185;57.818;15.224;2022-10-31T11:17:07;4.20;;;2.80;;
16159;SDS011;8185;57.818;15.224;2022-10-31T11:19:37;8.43;;;4.40;;
16159;SDS011;8185;57.818;15.224;2022-10-31T11:22:05;6.93;;;3.43;;
16159;SDS011;8185;57.818;15.224;2022-10-31T11:24:36;7.43;;;5.33;;
16159;SDS011;8185;57.818;15.224;2022-10-31T11:27:13;5.20;;;3.10;;
16159;SDS011;8185;57.818;15.224;2022-10-31T11:29:42;5.53;;;2.67;;
16159;SDS011;8185;57.818;15.224;2022-10-31T11:32:16;4.33;;;2.83;;
16159;SDS011;8185;57.818;15.224;2022-10-31T11:34:47;7.07;;;2.83;;
16159;SDS011;8185;57.818;15.224;2022-10-31T11:37:18;7.03;;;3.27;;
16159;SDS011;8185;57.818;15.224;2022-10-31T11:39:49;4.17;;;2.30;;
16159;SDS011;8185;57.818;15.224;2022-10-31T11:42:20;8.23;;;3.07;;
16159;SDS011;8185;57.818;15.224;2022-10-31T11:44:49;4.47;;;2.30;;
16159;SDS011;8185;57.818;15.224;2022-10-31T11:47:22;5.90;;;2.30;;
16159;SDS011;8185;57.818;15.224;2022-10-31T11:49:54;5.47;;;2.90;;
16159;SDS011;8185;57.818;15.224;2022-10-31T11:52:24;3.27;;;2.10;;
16159;SDS011;8185;57.818;15.224;2022-10-31T11:54:54;3.67;;;1.83;;
16159;SDS011;8185;57.818;15.224;2022-10-31T11:57:26;4.77;;;2.57;;
16159;SDS011;8185;57.818;15.224;2022-10-31T11:59:56;3.30;;;2.10;;
16159;SDS011;8185;57.818;15.224;2022-10-31T12:02:26;4.50;;;2.30;;
16159;SDS011;8185;57.818;15.224;2022-10-31T12:04:56;3.57;;;2.40;;
16159;SDS011;8185;57.818;15.224;2022-10-31T12:07:27;3.93;;;2.00;;
16159;SDS011;8185;57.818;15.224;2022-10-31T12:09:55;4.30;;;1.93;;
16159;SDS011;8185;57.818;15.224;2022-10-31T12:12:33;4.33;;;2.07;;
16159;SDS011;8185;57.818;15.224;2022-10-31T12:18:22;4.67;;;1.50;;
16159;SDS011;8185;57.818;15.224;2022-10-31T12:21:11;2.50;;;1.20;;
16159;SDS011;8185;57.818;15.224;2022-10-31T12:23:49;3.47;;;1.73;;
16159;SDS011;8185;57.818;15.224;2022-10-31T12:26:30;4.33;;;1.60;;
16159;SDS011;8185;57.818;15.224;2022-10-31T12:29:11;4.10;;;1.57;;
16159;SDS011;8185;57.818;15.224;2022-10-31T12:31:53;2.77;;;1.77;;
16159;SDS011;8185;57.818;15.224;2022-10-31T12:34:43;4.50;;;3.40;;
16159;SDS011;8185;57.818;15.224;2022-10-31T12:37:23;2.87;;;1.50;;
16159;SDS011;8185;57.818;15.224;2022-10-31T12:40:17;4.43;;;2.00;;
16159;SDS011;8185;57.818;15.224;2022-10-31T12:42:58;5.33;;;1.70;;
16159;SDS011;8185;57.818;15.224;2022-10-31T12:45:36;3.13;;;1.37;;
16159;SDS011;8185;57.818;15.224;2022-10-31T12:48:27;2.97;;;1.47;;
16159;SDS011;8185;57.818;15.224;2022-10-31T12:51:21;3.67;;;1.27;;
16159;SDS011;8185;57.818;15.224;2022-10-31T12:54:06;2.90;;;1.47;;
16159;SDS011;8185;57.818;15.224;2022-10-31T12:56:59;2.03;;;1.20;;
16159;SDS011;8185;57.818;15.224;2022-10-31T12:59:35;2.30;;;1.00;;
16159;SDS011;8185;57.818;15.224;2022-10-31T13:02:10;4.43;;;1.60;;
16159;SDS011;8185;57.818;15.224;2022-10-31T13:04:44;4.00;;;1.43;;
16159;SDS011;8185;57.818;15.224;2022-10-31T13:07:19;3.30;;;1.50;;
16159;SDS011;8185;57.818;15.224;2022-10-31T13:09:50;3.80;;;1.80;;
16159;SDS011;8185;57.818;15.224;2022-10-31T13:12:23;6.20;;;1.50;;
16159;SDS011;8185;57.818;15.224;2022-10-31T13:14:53;3.93;;;1.67;;
16159;SDS011;8185;57.818;15.224;2022-10-31T13:17:27;3.93;;;1.50;;
16159;SDS011;8185;57.818;15.224;2022-10-31T13:20:02;3.27;;;1.93;;
16159;SDS011;8185;57.818;15.224;2022-10-31T13:22:43;3.07;;;1.70;;
16159;SDS011;8185;57.818;15.224;2022-10-31T13:25:14;3.43;;;1.47;;
16159;SDS011;8185;57.818;15.224;2022-10-31T13:27:46;3.00;;;1.10;;
16159;SDS011;8185;57.818;15.224;2022-10-31T13:30:17;3.83;;;1.57;;
16159;SDS011;8185;57.818;15.224;2022-10-31T13:32:48;3.37;;;1.50;;
16159;SDS011;8185;57.818;15.224;2022-10-31T13:35:21;4.93;;;1.50;;
16159;SDS011;8185;57.818;15.224;2022-10-31T13:38:02;2.20;;;1.27;;
16159;SDS011;8185;57.818;15.224;2022-10-31T13:40:38;4.30;;;1.40;;
16159;SDS011;8185;57.818;15.224;2022-10-31T13:43:13;3.27;;;1.33;;
16159;SDS011;8185;57.818;15.224;2022-10-31T13:45:49;2.97;;;1.20;;
16159;SDS011;8185;57.818;15.224;2022-10-31T13:48:19;3.47;;;1.27;;
16159;SDS011;8185;57.818;15.224;2022-10-31T13:51:00;2.00;;;1.37;;
16159;SDS011;8185;57.818;15.224;2022-10-31T13:53:38;1.57;;;1.10;;
16159;SDS011;8185;57.818;15.224;2022-10-31T13:56:17;3.80;;;1.37;;
16159;SDS011;8185;57.818;15.224;2022-10-31T13:58:57;2.23;;;1.17;;
16159;SDS011;8185;57.818;15.224;2022-10-31T14:01:31;3.60;;;1.90;;
16159;SDS011;8185;57.818;15.224;2022-10-31T14:04:00;2.50;;;1.50;;
16159;SDS011;8185;57.818;15.224;2022-10-31T14:09:26;3.00;;;1.53;;
16159;SDS011;8185;57.818;15.224;2022-10-31T14:11:56;3.47;;;1.87;;
16159;SDS011;8185;57.818;15.224;2022-10-31T14:14:29;4.20;;;1.90;;
16159;SDS011;8185;57.818;15.224;2022-10-31T14:22:18;5.33;;;1.50;;
16159;SDS011;8185;57.818;15.224;2022-10-31T14:24:48;6.20;;;1.80;;
16159;SDS011;8185;57.818;15.224;2022-10-31T14:30:15;4.17;;;1.43;;
16159;SDS011;8185;57.818;15.224;2022-10-31T14:32:49;2.17;;;1.60;;
16159;SDS011;8185;57.818;15.224;2022-10-31T14:35:20;2.93;;;1.40;;
16159;SDS011;8185;57.818;15.224;2022-10-31T14:37:55;5.33;;;1.70;;
16159;SDS011;8185;57.818;15.224;2022-10-31T14:40:46;3.27;;;1.33;;
16159;SDS011;8185;57.818;15.224;2022-10-31T14:43:39;4.00;;;1.83;;
16159;SDS011;8185;57.818;15.224;2022-10-31T14:46:40;4.17;;;1.90;;
16159;SDS011;8185;57.818;15.224;2022-10-31T14:49:18;4.37;;;2.07;;
16159;SDS011;8185;57.818;15.224;2022-10-31T14:51:54;3.23;;;2.07;;
16159;SDS011;8185;57.818;15.224;2022-10-31T14:54:25;4.43;;;2.37;;
16159;SDS011;8185;57.818;15.224;2022-10-31T14:56:58;4.17;;;2.40;;
16159;SDS011;8185;57.818;15.224;2022-10-31T14:59:31;6.97;;;2.43;;
16159;SDS011;8185;57.818;15.224;2022-10-31T15:02:08;2.97;;;2.00;;
16159;SDS011;8185;57.818;15.224;2022-10-31T15:04:40;3.57;;;2.37;;
16159;SDS011;8185;57.818;15.224;2022-10-31T15:07:11;4.30;;;2.60;;
16159;SDS011;8185;57.818;15.224;2022-10-31T15:09:42;5.03;;;2.50;;
16159;SDS011;8185;57.818;15.224;2022-10-31T15:12:23;3.80;;;2.10;;
16159;SDS011;8185;57.818;15.224;2022-10-31T15:39:40;2.87;;;1.93;;
16159;SDS011;8185;57.818;15.224;2022-10-31T15:42:13;7.63;;;2.20;;
16159;SDS011;8185;57.818;15.224;2022-10-31T15:44:45;4.07;;;2.30;;
16159;SDS011;8185;57.818;15.224;2022-10-31T15:47:16;3.73;;;2.20;;
16159;SDS011;8185;57.818;15.224;2022-10-31T15:49:47;3.83;;;2.10;;
16159;SDS011;8185;57.818;15.224;2022-10-31T15:52:17;2.90;;;1.97;;
16159;SDS011;8185;57.818;15.224;2022-10-31T15:54:53;6.13;;;1.60;;
16159;SDS011;8185;57.818;15.224;2022-10-31T15:57:22;5.40;;;1.80;;